Data for 11/16/2016

Time Sea-Level Adjusted Pressure Absolute Pressure Temperature Relative Humidity Dew Point   
(mb) (inHg) (mb) (inHg) (C) (F) (%) (C) (F)
00:05 1009 29.8 838 24.75 9.3 48.8 60 2 35.6
00:10 1009 29.8 838 24.75 8.8 47.9 63 2.2 36
00:15 1009 29.8 838 24.75 8.4 47.1 67 2.6 36.6
00:20 1009 29.8 838 24.75 7.9 46.3 69 2.6 36.6
00:25 1009 29.8 838 24.75 7.6 45.6 71 2.7 36.8
00:30 1009 29.8 838 24.75 7.1 44.8 74 2.8 37.1
00:35 1009 29.8 838 24.75 6.5 43.8 77 2.8 37.1
00:40 1009 29.8 838 24.75 6.2 43.1 80 3.1 37.5
00:45 1009 29.8 839 24.78 5.7 42.3 83 3 37.3
00:50 1010 29.83 839 24.78 5.6 42 83 2.8 37.1
00:55 1010 29.83 839 24.78 5.6 42.1 81 2.6 36.7
01:00 1010 29.83 839 24.78 5.7 42.2 80 2.5 36.4
01:05 1010 29.83 839 24.78 5.6 42.1 77 2 35.6
01:10 1010 29.83 840 24.81 5.5 42 76 1.7 35
01:15 1011 29.85 840 24.81 5.4 41.8 75 1.3 34.4
01:20 1011 29.85 840 24.81 5.3 41.5 76 1.5 34.6
01:25 1011 29.85 840 24.81 5 41 79 1.7 35
01:30 1011 29.85 840 24.81 4.7 40.4 79 1.4 34.5
01:35 1011 29.85 840 24.81 4.4 40 80 1.2 34.2
01:40 1011 29.85 840 24.81 4.2 39.6 81 1.2 34.1
01:45 1011 29.85 840 24.81 4 39.3 80 0.9 33.6
01:50 1011 29.85 840 24.81 3.9 39 81 1 33.7
01:55 1011 29.85 841 24.83 3.8 38.8 81 0.9 33.6
02:00 1011 29.85 841 24.83 3.6 38.5 79 0.3 32.5
02:05 1012 29.88 841 24.83 3.3 37.9 79 0 32.1
02:10 1012 29.88 841 24.83 3.1 37.6 80 0 32.1
02:15 1012 29.88 841 24.83 2.9 37.3 82 0.2 32.3
02:20 1012 29.88 841 24.83 2.7 36.8 84 0.2 32.4
02:25 1012 29.88 841 24.83 2.5 36.5 85 0.3 32.5
02:30 1012 29.88 841 24.83 2.4 36.3 86 0.3 32.6
02:35 1012 29.88 841 24.83 2.3 36.1 86 0.3 32.5
02:40 1012 29.88 841 24.83 2.2 35.9 87 0.2 32.3
02:45 1012 29.88 841 24.83 2 35.7 87 0.1 32.2
02:50 1012 29.88 841 24.83 1.9 35.4 88 0.2 32.3
02:55 1012 29.88 842 24.86 1.8 35.3 89 0.1 32.2
03:00 1012 29.88 841 24.83 1.7 35 89 0.1 32.1
03:05 1012 29.88 841 24.83 1.4 34.6 89 -0.1 31.7
03:10 1012 29.88 841 24.83 1 33.9 90 -0.4 31.3
03:15 1012 29.88 841 24.83 0.6 33 92 -0.7 30.8
03:20 1012 29.88 841 24.83 0.4 32.7 92 -0.7 30.7
03:25 1012 29.88 841 24.83 0.3 32.6 93 -0.7 30.7
03:30 1012 29.88 841 24.83 0.3 32.6 93 -0.7 30.8
03:35 1012 29.88 841 24.83 0.4 32.7 93 -0.6 30.9
03:40 1012 29.88 841 24.83 0.4 32.8 93 -0.6 31
03:45 1012 29.88 841 24.83 0.5 32.8 93 -0.5 31.1
03:50 1012 29.88 841 24.83 0.5 32.9 93 -0.5 31.1
03:55 1012 29.88 841 24.83 0.6 33.1 93 -0.4 31.3
04:00 1012 29.88 841 24.83 0.6 33.1 93 -0.4 31.2
04:05 1012 29.88 841 24.83 0.7 33.2 93 -0.3 31.4
04:10 1012 29.88 841 24.83 0.9 33.6 92 -0.2 31.6
04:15 1012 29.88 841 24.83 0.7 33.3 92 -0.4 31.3
04:20 1012 29.88 841 24.83 0.6 33.1 93 -0.5 31.2
04:25 1012 29.88 841 24.83 0.6 33.1 93 -0.4 31.2
04:30 1012 29.88 841 24.83 0.6 33 93 -0.4 31.2
04:35 1012 29.88 841 24.83 0.7 33.2 93 -0.3 31.4
04:40 1011 29.85 841 24.83 0.8 33.4 93 -0.2 31.6
04:45 1011 29.85 841 24.83 0.9 33.6 92 -0.2 31.6
04:50 1011 29.85 841 24.83 1 33.7 92 -0.2 31.6
04:55 1011 29.85 841 24.83 1 33.8 92 -0.2 31.7
05:00 1011 29.85 841 24.83 1.1 33.9 92 -0.2 31.7
05:05 1011 29.85 841 24.83 1.1 34 91 -0.1 31.8
05:10 1011 29.85 841 24.83 1.2 34.1 91 -0.2 31.7
05:15 1012 29.88 841 24.83 1.1 34 91 -0.2 31.6
05:20 1011 29.85 841 24.83 1.1 34.1 91 -0.2 31.6
05:25 1011 29.85 841 24.83 1 33.8 91 -0.3 31.5
05:30 1012 29.88 841 24.83 0.9 33.6 91 -0.4 31.3
05:35 1012 29.88 841 24.83 0.7 33.3 92 -0.4 31.3
05:40 1012 29.88 841 24.83 0.7 33.2 92 -0.5 31.2
05:45 1012 29.88 841 24.83 0.7 33.3 92 -0.4 31.2
05:50 1012 29.88 841 24.83 0.8 33.4 92 -0.4 31.3
05:55 1011 29.85 841 24.83 0.8 33.5 92 -0.4 31.4
06:00 1012 29.88 841 24.83 0.8 33.5 92 -0.3 31.4
06:05 1011 29.85 841 24.83 1 33.7 92 -0.2 31.6
06:10 1011 29.85 841 24.83 0.9 33.7 92 -0.3 31.5
06:15 1011 29.85 841 24.83 0.8 33.4 92 -0.4 31.3
06:20 1011 29.85 840 24.81 0.7 33.2 92 -0.4 31.2
06:25 1011 29.85 840 24.81 0.7 33.2 93 -0.4 31.3
06:30 1011 29.85 840 24.81 0.7 33.3 93 -0.4 31.3
06:35 1011 29.85 840 24.81 0.7 33.3 93 -0.3 31.5
06:40 1011 29.85 840 24.81 0.8 33.4 93 -0.3 31.5
06:45 1011 29.85 840 24.81 0.8 33.4 93 -0.3 31.5
06:50 1011 29.85 841 24.83 0.8 33.5 93 -0.2 31.6
06:55 1011 29.85 840 24.81 0.7 33.3 93 -0.3 31.4
07:00 1011 29.85 841 24.83 0.7 33.2 93 -0.4 31.3
07:05 1011 29.85 841 24.83 0.7 33.2 93 -0.3 31.4
07:10 1011 29.85 841 24.83 0.6 33.1 93 -0.4 31.3
07:15 1011 29.85 840 24.81 0.6 33.1 93 -0.4 31.3
07:20 1011 29.85 840 24.81 0.6 33.1 93 -0.4 31.3
07:25 1011 29.85 840 24.81 0.6 33.1 93 -0.4 31.3
07:30 1011 29.85 840 24.81 0.6 33.1 93 -0.4 31.4
07:35 1011 29.85 840 24.81 0.6 33.1 93 -0.4 31.3
07:40 1011 29.85 840 24.81 0.7 33.2 93 -0.3 31.4
07:45 1011 29.85 840 24.81 0.8 33.4 93 -0.3 31.5
07:50 1011 29.85 840 24.81 0.8 33.4 93 -0.3 31.5
07:55 1011 29.85 840 24.81 0.8 33.4 92 -0.3 31.5
08:00 1011 29.85 840 24.81 0.8 33.4 92 -0.3 31.4
08:05 1011 29.85 840 24.81 0.8 33.5 92 -0.3 31.4
08:10 1011 29.85 840 24.81 0.8 33.5 92 -0.4 31.4
08:15 1011 29.85 840 24.81 0.8 33.5 92 -0.4 31.3
08:20 1011 29.85 840 24.81 0.9 33.6 91 -0.5 31.2
08:25 1011 29.85 840 24.81 1 33.9 89 -0.5 31.1
08:30 1011 29.85 840 24.81 1.1 34 90 -0.4 31.2
08:35 1011 29.85 840 24.81 1.1 33.9 89 -0.5 31.1
08:40 1011 29.85 840 24.81 1.1 33.9 90 -0.4 31.2
08:45 1011 29.85 840 24.81 1 33.8 90 -0.5 31.1
08:50 1011 29.85 840 24.81 1 33.8 89 -0.5 31
08:55 1011 29.85 840 24.81 1 33.7 89 -0.6 31
09:00 1011 29.85 840 24.81 1 33.7 90 -0.5 31.1
09:05 1011 29.85 840 24.81 1 33.8 90 -0.5 31.2
09:10 1011 29.85 840 24.81 1 33.8 90 -0.5 31.1
09:15 1011 29.85 840 24.81 1 33.8 90 -0.5 31.2
09:20 1011 29.85 840 24.81 1.1 33.9 89 -0.5 31.1
09:25 1011 29.85 840 24.81 1.1 34 89 -0.5 31.1
09:30 1011 29.85 840 24.81 1.2 34.2 88 -0.5 31.1
09:35 1011 29.85 840 24.81 1.3 34.3 88 -0.5 31
09:40 1011 29.85 840 24.81 1.4 34.4 87 -0.6 31
09:45 1011 29.85 840 24.81 1.4 34.4 87 -0.5 31.1
09:50 1011 29.85 840 24.81 1.3 34.4 87 -0.6 30.9
09:55 1011 29.85 840 24.81 1.4 34.5 88 -0.5 31.1
10:00 1011 29.85 840 24.81 1.4 34.5 87 -0.5 31.1
10:05 1011 29.85 840 24.81 1.4 34.5 88 -0.5 31.1
10:10 1011 29.85 840 24.81 1.4 34.5 87 -0.5 31.1
10:15 1011 29.85 840 24.81 1.4 34.6 88 -0.4 31.3
10:20 1010 29.83 840 24.81 1.6 34.9 87 -0.3 31.5
10:25 1011 29.85 840 24.81 2.1 35.7 85 -0.2 31.7
10:30 1011 29.85 840 24.81 2.3 36.1 82 -0.4 31.3
10:35 1011 29.85 840 24.81 2.2 36 83 -0.3 31.5
10:40 1011 29.85 840 24.81 2.3 36.1 84 -0.1 31.8
10:45 1010 29.83 840 24.81 2.3 36.2 84 -0.1 31.8
10:50 1011 29.85 840 24.81 2.1 35.8 85 -0.2 31.6
10:55 1011 29.85 840 24.81 2.1 35.8 85 -0.2 31.6
11:00 1011 29.85 840 24.81 2.1 35.8 85 -0.2 31.7
11:05 1011 29.85 840 24.81 2.2 35.9 84 -0.2 31.6
11:10 1011 29.85 840 24.81 2.2 35.9 84 -0.2 31.6
11:15 1011 29.85 840 24.81 2.2 35.9 84 -0.2 31.7
11:20 1011 29.85 840 24.81 2.2 36 84 -0.2 31.7
11:25 1011 29.85 840 24.81 2.4 36.3 82 -0.4 31.2
11:30 1011 29.85 840 24.81 2.5 36.5 81 -0.5 31.1
11:35 1011 29.85 840 24.81 2.7 36.8 82 -0.1 31.8
11:40 1011 29.85 840 24.81 2.7 36.8 81 -0.3 31.4
11:45 1011 29.85 840 24.81 2.8 37 77 -0.9 30.4
11:50 1011 29.85 840 24.81 2.8 37.1 79 -0.5 31.1
11:55 1011 29.85 840 24.81 3 37.5 77 -0.6 30.9
12:00 1011 29.85 840 24.81 3.2 37.8 76 -0.6 31
12:05 1011 29.85 840 24.81 3.4 38.1 80 0.2 32.4
12:10 1011 29.85 840 24.81 3.2 37.8 78 -0.3 31.5
12:15 1011 29.85 840 24.81 3.3 37.9 77 -0.4 31.2
12:20 1011 29.85 840 24.81 3.4 38.1 78 -0.2 31.7
12:25 1011 29.85 840 24.81 3.4 38 75 -0.6 30.9
12:30 1011 29.85 840 24.81 3.5 38.3 74 -0.7 30.7
12:35 1011 29.85 840 24.81 3.7 38.6 74 -0.6 31
12:40 1011 29.85 840 24.81 3.6 38.5 76 -0.1 31.8
12:45 1011 29.85 840 24.81 3.8 38.8 72 -0.8 30.5
12:50 1011 29.85 840 24.81 3.8 38.9 74 -0.4 31.4
12:55 1011 29.85 840 24.81 4 39.3 71 -0.7 30.7
13:00 1011 29.85 840 24.81 4 39.1 75 -0.1 31.9
13:05 1011 29.85 840 24.81 3.9 39 70 -1.1 29.9
13:10 1011 29.85 840 24.81 3.6 38.5 73 -0.8 30.6
13:15 1011 29.85 840 24.81 3.3 38 71 -1.5 29.4
13:20 1010 29.83 840 24.81 3.3 37.9 72 -1.2 29.8
13:25 1010 29.83 840 24.81 3.2 37.8 66 -2.5 27.5
13:30 1010 29.83 840 24.81 2.9 37.3 72 -1.6 29.1
13:35 1010 29.83 840 24.81 2.7 36.9 75 -1.2 29.8
13:40 1010 29.83 840 24.81 2.7 36.9 74 -1.5 29.4
13:45 1010 29.83 840 24.81 2.9 37.1 75 -1.1 30.1
13:50 1011 29.85 840 24.81 3 37.4 74 -1.1 30
13:55 1011 29.85 840 24.81 3 37.3 74 -1.2 29.9
14:00 1011 29.85 840 24.81 3 37.5 70 -2 28.5
14:05 1011 29.85 840 24.81 3.1 37.6 71 -1.7 29
14:10 1011 29.85 840 24.81 3.1 37.5 72 -1.4 29.4
14:15 1011 29.85 840 24.81 2.9 37.2 69 -2.3 27.9
14:20 1010 29.83 840 24.81 3.1 37.6 69 -1.9 28.5
14:25 1011 29.85 840 24.81 3.5 38.2 70 -1.4 29.5
14:30 1011 29.85 840 24.81 3.4 38.1 72 -1.2 29.8
14:35 1011 29.85 840 24.81 3.1 37.5 78 -0.4 31.2
14:40 1011 29.85 840 24.81 2.4 36.4 81 -0.6 31
14:45 1011 29.85 840 24.81 2 35.7 82 -0.8 30.6
14:50 1011 29.85 840 24.81 2.3 36.1 82 -0.5 31.1
14:55 1010 29.83 840 24.81 2.7 36.8 80 -0.4 31.3
15:00 1010 29.83 840 24.81 2.9 37.1 79 -0.5 31.2
15:05 1010 29.83 840 24.81 2.8 37.1 77 -0.8 30.5
15:10 1010 29.83 840 24.81 2.8 37 77 -0.9 30.3
15:15 1010 29.83 840 24.81 2.8 37.1 77 -0.9 30.4
15:20 1010 29.83 839 24.78 2.8 37 76 -1.1 30
15:25 1010 29.83 839 24.78 2.8 37 76 -1.1 30
15:30 1010 29.83 839 24.78 2.5 36.6 76 -1.2 29.8
15:35 1010 29.83 839 24.78 2.4 36.3 77 -1.2 29.8
15:40 1010 29.83 839 24.78 2.5 36.4 75 -1.6 29.2
15:45 1010 29.83 839 24.78 2.6 36.7 78 -0.8 30.6
15:50 1010 29.83 839 24.78 1.9 35.5 81 -0.9 30.3
15:55 1010 29.83 840 24.81 1.4 34.6 81 -1.5 29.3
16:00 1011 29.85 840 24.81 1.2 34.2 84 -1.2 29.8
16:05 1011 29.85 840 24.81 0.9 33.7 85 -1.3 29.7
16:10 1011 29.85 840 24.81 0.6 33.1 87 -1.3 29.7
16:15 1011 29.85 840 24.81 0.4 32.8 88 -1.3 29.7
16:20 1011 29.85 841 24.83 0.4 32.7 88 -1.4 29.5
16:25 1011 29.85 840 24.81 0.3 32.6 88 -1.4 29.4
16:30 1011 29.85 840 24.81 0.4 32.7 86 -1.7 28.9
16:35 1011 29.85 841 24.83 0.6 33.1 81 -2.2 28
16:40 1011 29.85 841 24.83 0.8 33.4 81 -2 28.3
16:45 1012 29.88 841 24.83 0.9 33.5 78 -2.5 27.5
16:50 1012 29.88 841 24.83 0.9 33.6 78 -2.5 27.5
16:55 1012 29.88 841 24.83 0.9 33.7 78 -2.5 27.4
17:00 1012 29.88 841 24.83 1 33.8 75 -3 26.6
17:05 1012 29.88 841 24.83 1.1 33.9 72 -3.5 25.7
17:10 1012 29.88 841 24.83 1.1 34 71 -3.5 25.7
17:15 1012 29.88 841 24.83 1.1 34 73 -3.2 26.2
17:20 1012 29.88 841 24.83 1.1 34 73 -3.3 26.1
17:25 1012 29.88 841 24.83 1.1 34 74 -3.1 26.5
17:30 1012 29.88 841 24.83 1.1 34 74 -3 26.5
17:35 1012 29.88 841 24.83 1 33.8 75 -2.9 26.8
17:40 1012 29.88 841 24.83 0.9 33.5 75 -3.1 26.5
17:45 1012 29.88 841 24.83 0.6 33 79 -2.7 27.2
17:50 1012 29.88 841 24.83 0.2 32.4 82 -2.5 27.5
17:55 1012 29.88 842 24.86 -0.2 31.6 86 -2.3 27.8
18:00 1012 29.88 841 24.83 -0.5 31.1 87 -2.5 27.6
18:05 1012 29.88 841 24.83 -0.6 31 87 -2.4 27.7
18:10 1012 29.88 841 24.83 -0.6 30.9 88 -2.4 27.7
18:15 1012 29.88 841 24.83 -0.7 30.7 88 -2.5 27.5
18:20 1012 29.88 841 24.83 -0.7 30.7 88 -2.5 27.5
18:25 1012 29.88 842 24.86 -0.7 30.8 87 -2.5 27.5
18:30 1012 29.88 842 24.86 -0.7 30.7 87 -2.6 27.3
18:35 1012 29.88 842 24.86 -0.7 30.7 86 -2.7 27.1
18:40 1013 29.91 842 24.86 -0.7 30.8 87 -2.6 27.3
18:45 1013 29.91 842 24.86 -0.8 30.6 87 -2.7 27.2
18:50 1013 29.91 842 24.86 -0.8 30.6 87 -2.7 27.1
18:55 1013 29.91 842 24.86 -0.8 30.6 86 -2.8 26.9
19:00 1013 29.91 842 24.86 -0.7 30.7 84 -3.1 26.5
19:05 1013 29.91 842 24.86 -0.5 31.1 83 -3.1 26.5
19:10 1013 29.91 842 24.86 -0.2 31.6 80 -3.2 26.2
19:15 1013 29.91 842 24.86 -0.1 31.9 80 -3.1 26.5
19:20 1013 29.91 842 24.86 -0.1 31.8 79 -3.4 25.9
19:25 1013 29.91 842 24.86 -0.2 31.6 78 -3.5 25.6
19:30 1013 29.91 842 24.86 -0.2 31.6 78 -3.6 25.6
19:35 1013 29.91 842 24.86 -0.1 31.8 78 -3.6 25.5
19:40 1013 29.91 842 24.86 -0.1 31.8 78 -3.6 25.6
19:45 1013 29.91 842 24.86 -0.1 31.8 77 -3.7 25.3
19:50 1013 29.91 842 24.86 0.1 32.1 75 -3.9 24.9
19:55 1013 29.91 842 24.86 0.1 32.2 74 -4 24.7
20:00 1013 29.91 842 24.86 0.2 32.4 75 -3.6 25.5
20:05 1013 29.91 842 24.86 0.1 32.1 77 -3.4 25.9
20:10 1013 29.91 842 24.86 -0.2 31.7 81 -3.1 26.5
20:15 1013 29.91 842 24.86 -0.4 31.3 81 -3.2 26.2
20:20 1013 29.91 842 24.86 -0.5 31.1 82 -3.2 26.2
20:25 1013 29.91 842 24.86 -0.6 31 80 -3.6 25.5
20:30 1013 29.91 842 24.86 -0.4 31.2 78 -3.8 25.2
20:35 1013 29.91 842 24.86 -0.3 31.4 81 -3.2 26.2
20:40 1013 29.91 842 24.86 -0.4 31.2 80 -3.5 25.6
20:45 1013 29.91 842 24.86 -0.4 31.3 75 -4.2 24.4
20:50 1013 29.91 842 24.86 -0.2 31.6 78 -3.7 25.4
20:55 1013 29.91 842 24.86 -0.1 31.9 79 -3.2 26.2
21:00 1013 29.91 843 24.89 -0 31.9 86 -2.1 28.2
21:05 1013 29.91 843 24.89 -0.7 30.7 88 -2.5 27.6
21:10 1013 29.91 843 24.89 -1.4 29.6 90 -2.8 26.9
21:15 1013 29.91 843 24.89 -1.6 29.2 90 -3 26.5
21:20 1013 29.91 843 24.89 -1.7 28.9 89 -3.3 26.1
21:25 1013 29.91 843 24.89 -1.8 28.7 89 -3.4 25.8
21:30 1013 29.91 843 24.89 -1.9 28.6 85 -4.1 24.7
21:35 1013 29.91 843 24.89 -1.6 29.1 73 -5.8 21.5
21:40 1013 29.91 843 24.89 -1.1 30.1 76 -4.8 23.4
21:45 1013 29.91 843 24.89 -1.3 29.6 81 -4.2 24.5
21:50 1013 29.91 842 24.86 -1.7 29 84 -4 24.8
21:55 1013 29.91 842 24.86 -1.7 28.9 85 -4 24.9
22:00 1013 29.91 842 24.86 -1.7 28.9 85 -4 24.9
22:05 1013 29.91 842 24.86 -1.8 28.8 83 -4.4 24.2
22:10 1013 29.91 843 24.89 -1.6 29.2 81 -4.4 24.1
22:15 1013 29.91 843 24.89 -1.4 29.4 83 -4 24.7
22:20 1013 29.91 843 24.89 -1.5 29.4 84 -3.7 25.3
22:25 1013 29.91 843 24.89 -1.6 29.2 84 -3.9 24.9
22:30 1013 29.91 842 24.86 -1.6 29.2 82 -4.2 24.5
22:35 1013 29.91 843 24.89 -1.6 29.2 81 -4.4 24.1
22:40 1013 29.91 843 24.89 -1.6 29.1 81 -4.4 24
22:45 1014 29.94 843 24.89 -1.6 29.1 78 -4.9 23.2
22:50 1014 29.94 843 24.89 -1.5 29.2 75 -5.3 22.4
22:55 1014 29.94 843 24.89 -1.5 29.4 74 -5.4 22.2
23:00 1014 29.94 843 24.89 -1.3 29.6 74 -5.5 22.2
23:05 1014 29.94 843 24.89 -1.3 29.7 72 -5.6 21.9
23:10 1014 29.94 843 24.89 -1.2 29.8 72 -5.6 21.9
23:15 1014 29.94 843 24.89 -1.2 29.8 72 -5.6 21.9
23:20 1014 29.94 843 24.89 -1.3 29.7 72 -5.7 21.8
23:25 1014 29.94 843 24.89 -1.3 29.7 71 -5.9 21.4
23:30 1014 29.94 843 24.89 -1.2 29.8 71 -5.8 21.5
23:35 1014 29.94 843 24.89 -1.2 29.8 72 -5.7 21.7
23:40 1014 29.94 843 24.89 -1.4 29.6 77 -4.9 23.1
23:45 1014 29.94 843 24.89 -1.6 29.2 77 -5.1 22.8
23:50 1014 29.94 843 24.89 -1.7 29 75 -5.5 22.1
23:55 1014 29.94 843 24.89 -1.6 29.1 75 -5.5 22.1
24:00 1014 29.94 843 24.89 -1.4 29.4 76 -5.2 22.7